sensor_id;sensor_type;location;lat;lon;timestamp;temperature;humidity
3402;DHT22;1714;49.756;8.610;2022-10-28T00:00:54;13.00;99.90
3402;DHT22;1714;49.756;8.610;2022-10-28T00:11:01;12.90;99.90
3402;DHT22;1714;49.756;8.610;2022-10-28T00:20:59;12.80;99.90
3402;DHT22;1714;49.756;8.610;2022-10-28T00:31:04;12.80;99.90
3402;DHT22;1714;49.756;8.610;2022-10-28T00:41:01;12.70;99.90
3402;DHT22;1714;49.756;8.610;2022-10-28T00:50:58;12.90;99.90
3402;DHT22;1714;49.756;8.610;2022-10-28T01:00:56;12.90;99.90
3402;DHT22;1714;49.756;8.610;2022-10-28T01:11:06;13.00;99.90
3402;DHT22;1714;49.756;8.610;2022-10-28T01:31:25;13.00;99.90
3402;DHT22;1714;49.756;8.610;2022-10-28T01:41:30;13.00;99.90
3402;DHT22;1714;49.756;8.610;2022-10-28T01:51:37;13.10;99.90
3402;DHT22;1714;49.756;8.610;2022-10-28T02:01:35;13.10;99.90
3402;DHT22;1714;49.756;8.610;2022-10-28T02:11:35;13.00;99.90
3402;DHT22;1714;49.756;8.610;2022-10-28T02:31:46;13.20;99.90
3402;DHT22;1714;49.756;8.610;2022-10-28T02:41:45;13.40;99.90
3402;DHT22;1714;49.756;8.610;2022-10-28T02:51:47;13.40;99.90
3402;DHT22;1714;49.756;8.610;2022-10-28T03:01:45;13.30;99.90
3402;DHT22;1714;49.756;8.610;2022-10-28T03:11:43;13.40;99.90
3402;DHT22;1714;49.756;8.610;2022-10-28T03:21:40;13.30;99.90
3402;DHT22;1714;49.756;8.610;2022-10-28T03:31:37;13.30;99.90
3402;DHT22;1714;49.756;8.610;2022-10-28T03:41:34;13.20;99.90
3402;DHT22;1714;49.756;8.610;2022-10-28T03:51:31;13.30;99.90
3402;DHT22;1714;49.756;8.610;2022-10-28T04:01:29;13.40;99.90
3402;DHT22;1714;49.756;8.610;2022-10-28T04:11:26;13.40;99.90
3402;DHT22;1714;49.756;8.610;2022-10-28T04:21:23;13.40;99.90
3402;DHT22;1714;49.756;8.610;2022-10-28T04:31:20;13.50;99.90
3402;DHT22;1714;49.756;8.610;2022-10-28T04:41:17;13.50;99.90
3402;DHT22;1714;49.756;8.610;2022-10-28T04:51:14;13.40;99.90
3402;DHT22;1714;49.756;8.610;2022-10-28T05:01:11;13.30;99.90
3402;DHT22;1714;49.756;8.610;2022-10-28T05:11:08;13.30;99.90
3402;DHT22;1714;49.756;8.610;2022-10-28T05:21:05;13.30;99.90
3402;DHT22;1714;49.756;8.610;2022-10-28T05:31:02;13.30;99.90
3402;DHT22;1714;49.756;8.610;2022-10-28T05:41:00;13.20;99.90
3402;DHT22;1714;49.756;8.610;2022-10-28T05:50:57;13.20;99.90
3402;DHT22;1714;49.756;8.610;2022-10-28T06:00:54;13.10;99.90
3402;DHT22;1714;49.756;8.610;2022-10-28T06:10:52;13.00;99.90
3402;DHT22;1714;49.756;8.610;2022-10-28T06:20:56;13.10;99.90
3402;DHT22;1714;49.756;8.610;2022-10-28T06:30:53;13.10;99.90
3402;DHT22;1714;49.756;8.610;2022-10-28T06:40:51;13.30;99.90
3402;DHT22;1714;49.756;8.610;2022-10-28T06:50:49;13.40;99.90
3402;DHT22;1714;49.756;8.610;2022-10-28T07:00:47;13.40;99.90
3402;DHT22;1714;49.756;8.610;2022-10-28T07:10:51;13.40;99.90
3402;DHT22;1714;49.756;8.610;2022-10-28T07:20:49;13.60;99.90
3402;DHT22;1714;49.756;8.610;2022-10-28T07:30:46;13.80;99.90
3402;DHT22;1714;49.756;8.610;2022-10-28T07:40:43;13.90;99.90
3402;DHT22;1714;49.756;8.610;2022-10-28T07:50:40;14.10;99.90
3402;DHT22;1714;49.756;8.610;2022-10-28T08:00:37;14.30;99.90
3402;DHT22;1714;49.756;8.610;2022-10-28T08:10:34;14.40;99.90
3402;DHT22;1714;49.756;8.610;2022-10-28T08:20:32;14.60;99.90
3402;DHT22;1714;49.756;8.610;2022-10-28T08:30:29;14.80;99.90
3402;DHT22;1714;49.756;8.610;2022-10-28T09:00:58;15.80;99.90
3402;DHT22;1714;49.756;8.610;2022-10-28T09:21:14;16.50;99.90
3402;DHT22;1714;49.756;8.610;2022-10-28T09:32:00;16.60;99.90
3402;DHT22;1714;49.756;8.610;2022-10-28T09:41:36;16.60;99.90
3402;DHT22;1714;49.756;8.610;2022-10-28T10:01:35;17.90;99.90
3402;DHT22;1714;49.756;8.610;2022-10-28T10:11:41;18.40;91.00
3402;DHT22;1714;49.756;8.610;2022-10-28T10:31:36;19.10;69.40
3402;DHT22;1714;49.756;8.610;2022-10-28T10:41:38;19.80;56.10
3402;DHT22;1714;49.756;8.610;2022-10-28T10:51:35;20.40;46.40
3402;DHT22;1714;49.756;8.610;2022-10-28T11:01:37;20.80;37.80
3402;DHT22;1714;49.756;8.610;2022-10-28T11:11:36;21.10;34.40
3402;DHT22;1714;49.756;8.610;2022-10-28T11:41:52;21.20;29.50
3402;DHT22;1714;49.756;8.610;2022-10-28T11:51:53;21.70;28.50
3402;DHT22;1714;49.756;8.610;2022-10-28T12:12:12;22.10;24.30
3402;DHT22;1714;49.756;8.610;2022-10-28T12:22:13;22.10;24.10
3402;DHT22;1714;49.756;8.610;2022-10-28T12:32:17;22.30;23.40
3402;DHT22;1714;49.756;8.610;2022-10-28T12:42:29;22.40;22.20
3402;DHT22;1714;49.756;8.610;2022-10-28T13:03:06;22.80;21.10
3402;DHT22;1714;49.756;8.610;2022-10-28T13:33:14;22.60;22.40
3402;DHT22;1714;49.756;8.610;2022-10-28T13:43:20;22.50;22.40
3402;DHT22;1714;49.756;8.610;2022-10-28T13:53:38;22.40;21.50
3402;DHT22;1714;49.756;8.610;2022-10-28T14:03:35;22.10;23.60
3402;DHT22;1714;49.756;8.610;2022-10-28T14:14:11;22.30;22.50
3402;DHT22;1714;49.756;8.610;2022-10-28T14:24:07;22.20;22.30
3402;DHT22;1714;49.756;8.610;2022-10-28T14:44:10;21.80;25.00
3402;DHT22;1714;49.756;8.610;2022-10-28T14:54:13;21.50;27.40
3402;DHT22;1714;49.756;8.610;2022-10-28T15:04:11;21.30;28.80
3402;DHT22;1714;49.756;8.610;2022-10-28T15:24:21;21.20;30.80
3402;DHT22;1714;49.756;8.610;2022-10-28T15:34:19;21.00;31.00
3402;DHT22;1714;49.756;8.610;2022-10-28T15:44:34;20.90;31.90
3402;DHT22;1714;49.756;8.610;2022-10-28T15:54:32;20.70;33.30
3402;DHT22;1714;49.756;8.610;2022-10-28T16:14:32;20.40;35.30
3402;DHT22;1714;49.756;8.610;2022-10-28T16:24:29;20.30;35.30
3402;DHT22;1714;49.756;8.610;2022-10-28T16:34:27;20.10;35.00
3402;DHT22;1714;49.756;8.610;2022-10-28T16:44:24;20.00;34.90
3402;DHT22;1714;49.756;8.610;2022-10-28T16:54:22;20.00;34.70
3402;DHT22;1714;49.756;8.610;2022-10-28T17:04:19;19.80;36.30
3402;DHT22;1714;49.756;8.610;2022-10-28T17:14:16;19.70;37.90
3402;DHT22;1714;49.756;8.610;2022-10-28T17:24:13;19.70;37.60
3402;DHT22;1714;49.756;8.610;2022-10-28T17:34:10;19.60;38.20
3402;DHT22;1714;49.756;8.610;2022-10-28T17:44:08;19.50;39.00
3402;DHT22;1714;49.756;8.610;2022-10-28T17:54:05;19.30;40.80
3402;DHT22;1714;49.756;8.610;2022-10-28T18:04:02;19.30;40.40
3402;DHT22;1714;49.756;8.610;2022-10-28T18:14:01;19.20;41.80
3402;DHT22;1714;49.756;8.610;2022-10-28T18:23:59;19.20;41.80
3402;DHT22;1714;49.756;8.610;2022-10-28T18:34:02;18.90;44.20
3402;DHT22;1714;49.756;8.610;2022-10-28T18:44:00;18.70;48.10
3402;DHT22;1714;49.756;8.610;2022-10-28T18:53:58;18.40;51.20
3402;DHT22;1714;49.756;8.610;2022-10-28T19:03:56;18.50;49.70
3402;DHT22;1714;49.756;8.610;2022-10-28T19:13:55;18.60;47.40
3402;DHT22;1714;49.756;8.610;2022-10-28T19:23:53;18.80;46.20
3402;DHT22;1714;49.756;8.610;2022-10-28T19:33:51;18.80;44.80
3402;DHT22;1714;49.756;8.610;2022-10-28T19:43:51;18.80;43.50
3402;DHT22;1714;49.756;8.610;2022-10-28T19:53:55;18.80;43.60
3402;DHT22;1714;49.756;8.610;2022-10-28T20:03:52;18.70;44.80
3402;DHT22;1714;49.756;8.610;2022-10-28T20:13:53;18.50;46.40
3402;DHT22;1714;49.756;8.610;2022-10-28T20:23:51;18.70;46.00
3402;DHT22;1714;49.756;8.610;2022-10-28T20:33:52;18.80;45.90
3402;DHT22;1714;49.756;8.610;2022-10-28T20:43:50;18.80;44.90
3402;DHT22;1714;49.756;8.610;2022-10-28T20:53:48;18.80;44.80
3402;DHT22;1714;49.756;8.610;2022-10-28T21:03:45;18.70;45.50
3402;DHT22;1714;49.756;8.610;2022-10-28T21:13:43;18.70;46.20
3402;DHT22;1714;49.756;8.610;2022-10-28T21:23:42;18.60;48.20
3402;DHT22;1714;49.756;8.610;2022-10-28T21:33:39;18.50;48.70
3402;DHT22;1714;49.756;8.610;2022-10-28T21:43:38;18.30;51.90
3402;DHT22;1714;49.756;8.610;2022-10-28T21:53:36;18.10;53.30
3402;DHT22;1714;49.756;8.610;2022-10-28T22:03:33;17.80;56.60
3402;DHT22;1714;49.756;8.610;2022-10-28T22:13:31;17.60;57.10
3402;DHT22;1714;49.756;8.610;2022-10-28T22:23:28;17.70;56.70
3402;DHT22;1714;49.756;8.610;2022-10-28T22:33:25;17.60;57.30
3402;DHT22;1714;49.756;8.610;2022-10-28T22:43:23;17.70;57.40
3402;DHT22;1714;49.756;8.610;2022-10-28T22:53:20;17.60;58.30
3402;DHT22;1714;49.756;8.610;2022-10-28T23:03:17;17.60;59.30
3402;DHT22;1714;49.756;8.610;2022-10-28T23:13:15;17.40;60.60
3402;DHT22;1714;49.756;8.610;2022-10-28T23:23:12;17.40;60.70
3402;DHT22;1714;49.756;8.610;2022-10-28T23:33:09;17.40;59.80
3402;DHT22;1714;49.756;8.610;2022-10-28T23:43:07;17.30;61.10
3402;DHT22;1714;49.756;8.610;2022-10-28T23:53:04;17.40;59.80
